Monroe, WI

6:07 PM CST on November 16, 2018 (GMT -0600)
North edge of city | | Change Station
Active Advisory: Winter Weather Advisory

Elev 1040 ft 42.61 °N, 89.64 °W | Updated 16 seconds ago

Overcast
Overcast
33.4 °F
Feels Like 33 °F
N
2
Wind Variable Wind from West
Gusts 3.0 mph

Today
High -- | Low -- °F
--% Chance of Precip.
Yesterday
High -- | Low -- °F
Precip. -- in
Pressure 30.09 in
Visibility 10.0 miles
Clouds Overcast 1400 ft
Windchill 33 °F
Dew Point 28 °F
Humidity 80%
Rainfall 0.00 in
Snow Depth Not available.
6:51 AM 4:35 PM
Waxing Gibbous, 63% visible
METAR KFEP 162355Z AUTO 27005KT 10SM OVC014 00/M03 A3009 RMK AO2 T10031027 10023 21003
Pressure 30.09 in
Visibility 10.0 miles
Clouds Overcast 1400 ft
Windchill 33 °F
Dew Point 28 °F
Humidity 80%
Rainfall 0.00 in
Snow Depth Not available.
6:51 AM 4:35 PM
Waxing Gibbous, 63% visible
METAR KFEP 162355Z AUTO 27005KT 10SM OVC014 00/M03 A3009 RMK AO2 T10031027 10023 21003

Get Your Daily Forecast Email!

Thanks for signing up!

Be on the lookout for a verification email in your inbox.

You'll start receiving severe weather alerts in your inbox..

×

10-Day Weather Forecast

Almanac

Astronomy

Nov. 16, 2018 Rise Set
Actual Time
Civil Twilight
Nautical Twilight
Astronomical Twilight
Moon
Length of Visible Light
Length of Day
Tomorrow will be .
, % of the Moon is Illuminated

Today's Extremes

State Highs State Lows

Community

WunderPhotos

Category 6

Welcome to Category 6. This is the collective home for Weather Underground's featured writeups by Dr. Jeff Masters (right), Bob Henson (left), Chris Burt, and other regular contributors.

Nearby

Air Quality

  Air Quality AQ Index Pollutant
Not available.

Snow Depth

Station Depth Elevation

Earthquake Activity

City Distance Mag. Time & Date
Minimum magnitude displayed is 2.5.

Coastal Water Temperatures

Place Temperature

Stations

Nearby Weather Stations

Station Location Temp. Windchill Dew Point Humidity Wind Precip. Elev Updated Type
                   

Watches & Warnings

Winter Weather Advisory
Issued: 2:53 PM CST Nov. 16, 2018 – National Weather Service

... Winter Weather Advisory remains in effect from 9 PM this
evening to 7 am CST Saturday...

* what... snow overnight. Total snow accumulations of 2 to 4 inches
expected with locally higher amounts possible. Wind will be
fairly light during this event and then increase out of the
north Saturday afternoon.

* When... snow will spread into southern Wisconsin this evening
and exit to the east Saturday morning.

* Additional details... plan on slippery Road conditions.

Precautionary/preparedness actions...

A Winter Weather Advisory for snow means periods of snow will
cause primarily travel difficulties. Expect snow covered roads
and limited visibilities, and use caution while driving.

The latest Road conditions for the state you are calling from can
be obtained by calling 5 1 1.



Cronce